Time;durP1;ratioP1;P1;durP2;ratioP2;P2;SDS_P1;SDS_P2;PMS_P1;PMS_P2;Temp;Humidity;BMP_temperature;BMP_pressure;BME280_temperature;BME280_humidity;BME280_pressure;Samples;Min_cycle;Max_cycle;Signal;HPM_P1;HPM_P2
2021/10/06 00:01:16;;;;;;;12.20;4.97;;;;;;;11.42;54.32;101994.00;5012525;28;20502;-83
2021/10/06 00:03:43;;;;;;;6.87;4.30;;;;;;;11.41;53.97;101995.16;5010903;28;20046;-85
2021/10/06 00:06:10;;;;;;;13.37;4.50;;;;;;;11.37;53.49;102003.28;5009217;28;20730;-85
2021/10/06 00:08:36;;;;;;;10.50;4.53;;;;;;;11.38;53.60;101998.63;5004715;28;20088;-83
2021/10/06 00:11:03;;;;;;;7.93;5.33;;;;;;;11.37;53.81;102005.22;5012064;28;20125;-83
2021/10/06 00:13:30;;;;;;;7.90;4.93;;;;;;;11.30;54.63;102000.53;5012602;28;20050;-83
2021/10/06 00:15:57;;;;;;;7.30;4.40;;;;;;;11.25;54.22;102001.66;5013356;28;20054;-82
2021/10/06 00:18:24;;;;;;;10.97;4.83;;;;;;;11.25;53.87;101993.50;5013141;28;20522;-84
2021/10/06 00:20:51;;;;;;;8.57;4.87;;;;;;;11.24;54.42;101997.38;5009040;28;20125;-82
2021/10/06 00:23:18;;;;;;;8.97;4.73;;;;;;;11.22;54.46;102005.13;5004464;28;20479;-83
2021/10/06 00:25:44;;;;;;;8.97;4.97;;;;;;;11.21;53.90;102005.50;5016580;28;20081;-82
2021/10/06 00:28:11;;;;;;;10.37;5.03;;;;;;;11.16;54.35;102011.28;5021492;28;20113;-82
2021/10/06 00:30:38;;;;;;;7.43;4.67;;;;;;;11.12;54.65;102011.25;5011534;28;20077;-82
2021/10/06 00:33:05;;;;;;;9.50;4.37;;;;;;;11.08;54.36;102024.03;5032031;28;20077;-83
2021/10/06 00:35:32;;;;;;;8.77;4.87;;;;;;;11.04;54.74;102015.06;5016830;28;20166;-83
2021/10/06 00:37:58;;;;;;;9.50;5.10;;;;;;;11.00;55.20;102019.69;5015430;28;20124;-83
2021/10/06 00:40:25;;;;;;;9.47;4.53;;;;;;;10.91;56.06;102016.47;5015830;28;20118;-83
2021/10/06 00:42:52;;;;;;;12.07;5.10;;;;;;;10.83;55.70;102017.59;5007119;28;20096;-84
2021/10/06 00:45:19;;;;;;;9.97;4.80;;;;;;;10.80;55.91;102015.63;5012709;28;20050;-83
2021/10/06 00:47:46;;;;;;;11.13;5.20;;;;;;;10.69;56.96;102004.63;4996259;28;20137;-83
2021/10/06 00:50:13;;;;;;;8.27;5.17;;;;;;;10.65;56.91;102014.69;5003483;28;20052;-83
2021/10/06 00:52:40;;;;;;;9.70;5.47;;;;;;;10.57;56.79;102007.63;5010764;28;20081;-82
2021/10/06 00:55:07;;;;;;;11.40;5.23;;;;;;;10.52;56.39;102006.00;5002434;28;20133;-84
2021/10/06 00:57:34;;;;;;;8.43;4.93;;;;;;;10.47;57.08;102021.84;5014921;28;20077;-83
2021/10/06 01:00:01;;;;;;;13.53;5.07;;;;;;;10.46;56.66;102023.00;5014297;28;20132;-82
2021/10/06 01:02:28;;;;;;;9.87;5.13;;;;;;;10.42;56.46;102022.19;5004598;28;20422;-82
2021/10/06 01:04:55;;;;;;;11.63;5.60;;;;;;;10.37;56.76;102015.16;5014055;28;20082;-83
2021/10/06 01:07:22;;;;;;;8.23;5.33;;;;;;;10.27;57.90;102021.25;5008967;28;20133;-82
2021/10/06 01:09:51;;;;;;;11.10;4.90;;;;;;;10.22;57.63;102018.84;5010794;28;20064;-82
2021/10/06 01:12:18;;;;;;;9.67;5.47;;;;;;;10.22;57.30;102037.84;5007278;28;20471;-82
2021/10/06 01:14:46;;;;;;;7.10;5.13;;;;;;;10.09;58.03;102026.41;5013378;28;20128;-83
2021/10/06 01:17:14;;;;;;;12.60;5.63;;;;;;;10.08;58.39;102030.28;5010453;28;20093;-83
2021/10/06 01:19:41;;;;;;;9.07;4.70;;;;;;;10.04;57.91;102034.09;5014711;28;20077;-82
2021/10/06 01:22:07;;;;;;;10.47;5.33;;;;;;;10.02;58.38;102030.97;5004042;28;20057;-83
2021/10/06 01:24:34;;;;;;;8.87;5.47;;;;;;;9.97;58.15;102032.06;5002002;28;20085;-84
2021/10/06 01:27:01;;;;;;;14.97;6.90;;;;;;;9.92;59.53;102038.56;5014092;28;20092;-83
2021/10/06 01:29:29;;;;;;;12.20;6.63;;;;;;;9.87;59.72;102047.06;5016555;28;20087;-83
2021/10/06 01:31:55;;;;;;;17.37;7.53;;;;;;;9.86;58.57;102050.91;5011249;28;20133;-82
2021/10/06 01:34:24;;;;;;;17.43;6.53;;;;;;;9.81;59.05;102043.09;5001118;28;20141;-83
2021/10/06 01:36:54;;;;;;;21.63;8.37;;;;;;;9.79;59.13;102047.31;5029994;28;20129;-84
2021/10/06 01:39:21;;;;;;;16.60;7.63;;;;;;;9.71;59.50;102048.34;5013795;28;20524;-83
2021/10/06 01:41:49;;;;;;;18.43;8.20;;;;;;;9.69;59.23;102047.91;5005624;28;20455;-84
2021/10/06 01:44:17;;;;;;;16.83;8.03;;;;;;;9.66;59.42;102052.16;4998959;28;20074;-84
2021/10/06 01:46:44;;;;;;;17.00;8.40;;;;;;;9.65;59.93;102050.59;5011572;28;20074;-83
2021/10/06 01:49:11;;;;;;;16.90;7.93;;;;;;;9.55;59.95;102046.56;5012047;28;20414;-83
2021/10/06 01:51:38;;;;;;;16.73;7.57;;;;;;;9.55;59.55;102051.22;5029374;28;20089;-83
2021/10/06 01:54:05;;;;;;;21.07;8.93;;;;;;;9.50;60.13;102048.81;5004584;28;20078;-82
2021/10/06 01:56:32;;;;;;;15.80;7.80;;;;;;;9.51;59.93;102056.56;5013861;28;20550;-83
2021/10/06 01:59:00;;;;;;;13.23;6.13;;;;;;;9.48;59.88;102056.50;5012323;28;20137;-82
2021/10/06 02:01:27;;;;;;;11.77;6.27;;;;;;;9.43;60.14;102064.97;5005875;28;20093;-83
2021/10/06 02:03:54;;;;;;;12.40;6.33;;;;;;;9.41;59.47;102061.84;5013042;28;20144;-82
2021/10/06 02:06:21;;;;;;;12.13;5.90;;;;;;;9.39;59.56;102061.41;5033830;28;20084;-83
2021/10/06 02:08:48;;;;;;;10.67;5.57;;;;;;;9.34;59.96;102056.28;5024431;28;20129;-83
2021/10/06 02:11:15;;;;;;;9.40;5.07;;;;;;;9.30;59.79;102058.16;5013708;28;20145;-83
2021/10/06 02:13:42;;;;;;;14.17;7.00;;;;;;;9.27;59.71;102061.59;5014070;28;20100;-84
2021/10/06 02:16:08;;;;;;;14.40;7.00;;;;;;;9.23;59.74;102062.31;5010114;28;20130;-83
2021/10/06 02:18:35;;;;;;;18.70;7.30;;;;;;;9.23;59.93;102058.81;5009673;28;20050;-83
2021/10/06 02:21:02;;;;;;;19.97;9.00;;;;;;;9.16;60.19;102067.63;5009323;28;20083;-83
2021/10/06 02:23:29;;;;;;;13.57;6.47;;;;;;;9.17;59.91;102060.28;5012648;28;20141;-83
2021/10/06 02:25:56;;;;;;;16.97;8.37;;;;;;;9.13;60.77;102068.34;5008813;28;20470;-83
2021/10/06 02:28:22;;;;;;;15.13;7.60;;;;;;;9.12;60.34;102061.34;5004141;28;20083;-83
2021/10/06 02:30:49;;;;;;;9.80;5.97;;;;;;;9.06;60.70;102067.44;5036937;28;20132;-83
2021/10/06 02:33:17;;;;;;;13.60;6.67;;;;;;;9.05;60.33;102072.06;5010388;28;20132;-82
2021/10/06 02:35:43;;;;;;;16.23;6.33;;;;;;;9.02;60.40;102072.78;5025571;28;20069;-83
2021/10/06 02:38:10;;;;;;;16.07;6.73;;;;;;;8.98;60.26;102055.66;5008126;28;20454;-83
2021/10/06 02:40:37;;;;;;;13.70;6.70;;;;;;;8.91;60.83;102060.97;5000351;28;20525;-84
2021/10/06 02:43:04;;;;;;;12.87;6.23;;;;;;;8.86;60.37;102075.59;5027485;28;20093;-83
2021/10/06 02:45:31;;;;;;;15.57;6.73;;;;;;;8.80;60.81;102077.03;5009082;28;20148;-83
2021/10/06 02:47:58;;;;;;;15.37;7.27;;;;;;;8.80;60.77;102076.22;5012086;28;20149;-83
2021/10/06 02:50:25;;;;;;;14.93;6.13;;;;;;;8.80;60.30;102073.53;4995702;28;20122;-85
2021/10/06 02:52:53;;;;;;;17.80;7.23;;;;;;;8.78;60.67;102073.09;5007330;28;20062;-84
2021/10/06 02:55:21;;;;;;;15.23;7.90;;;;;;;8.79;60.69;102080.09;5012696;28;20058;-84
2021/10/06 02:57:48;;;;;;;24.17;9.77;;;;;;;8.80;60.14;102079.72;5011638;28;20104;-84
2021/10/06 03:00:15;;;;;;;25.63;9.93;;;;;;;8.81;60.67;102077.81;5024302;28;20086;-83
2021/10/06 03:02:42;;;;;;;31.77;11.23;;;;;;;8.82;60.58;102085.56;5013051;28;20046;-83
2021/10/06 03:05:10;;;;;;;31.87;11.40;;;;;;;8.84;60.16;102082.50;5007075;28;20054;-84
2021/10/06 03:07:38;;;;;;;32.53;11.83;;;;;;;8.85;60.12;102073.25;5009734;28;20054;-83
2021/10/06 03:10:06;;;;;;;29.90;11.20;;;;;;;8.87;59.90;102087.22;5012688;28;20536;-83
2021/10/06 03:12:33;;;;;;;36.33;12.73;;;;;;;8.80;59.69;102087.84;5007342;28;20154;-84
2021/10/06 03:15:01;;;;;;;27.63;10.63;;;;;;;8.75;60.01;102085.44;5011498;28;20107;-83
2021/10/06 03:17:28;;;;;;;24.33;10.80;;;;;;;8.80;59.35;102095.19;5016271;28;20045;-83
2021/10/06 03:19:55;;;;;;;33.33;9.97;;;;;;;8.80;59.06;102092.47;5012098;28;20567;-84
2021/10/06 03:22:22;;;;;;;20.93;8.47;;;;;;;8.76;59.21;102097.03;5005414;28;20483;-83
2021/10/06 03:24:49;;;;;;;18.30;8.00;;;;;;;8.67;59.17;102086.44;5004913;28;20203;-82
2021/10/06 03:27:16;;;;;;;25.47;9.30;;;;;;;8.67;58.71;102086.44;5011738;28;20084;-83
2021/10/06 03:29:44;;;;;;;29.57;10.30;;;;;;;8.61;58.59;102089.78;5012147;28;20140;-84
2021/10/06 03:32:11;;;;;;;22.40;10.37;;;;;;;8.62;58.54;102102.19;5012578;28;20128;-83
2021/10/06 03:34:38;;;;;;;26.37;11.27;;;;;;;8.63;58.71;102087.50;5011627;28;20104;-84
2021/10/06 03:37:05;;;;;;;28.50;11.40;;;;;;;8.57;58.65;102105.16;5000931;28;20124;-83
2021/10/06 03:39:32;;;;;;;23.67;9.33;;;;;;;8.51;58.80;102091.91;5009032;28;20461;-84
2021/10/06 03:41:59;;;;;;;26.63;8.57;;;;;;;8.45;58.62;102087.94;5041920;28;20128;-84
2021/10/06 03:44:27;;;;;;;22.67;9.40;;;;;;;8.41;57.92;102087.06;5007093;28;20137;-86
2021/10/06 03:46:54;;;;;;;17.87;8.50;;;;;;;8.42;58.14;102088.66;5009027;28;20128;-83
2021/10/06 03:49:21;;;;;;;20.30;8.50;;;;;;;8.36;57.71;102092.75;5007760;28;20058;-82
2021/10/06 03:51:48;;;;;;;25.77;8.00;;;;;;;8.37;57.56;102096.25;5010370;28;20053;-84
2021/10/06 03:54:15;;;;;;;21.77;8.30;;;;;;;8.39;57.50;102097.47;5008635;28;20688;-84
2021/10/06 03:56:41;;;;;;;20.83;7.97;;;;;;;8.30;56.72;102085.25;5003684;28;20141;-84
2021/10/06 03:59:08;;;;;;;20.43;8.23;;;;;;;8.32;56.96;102100.03;5013351;28;20077;-82
2021/10/06 04:01:35;;;;;;;29.03;10.40;;;;;;;8.33;57.31;102100.81;5012635;28;20100;-83
2021/10/06 04:04:02;;;;;;;29.93;11.03;;;;;;;8.32;57.77;102100.03;5007140;28;20489;-83
2021/10/06 04:06:29;;;;;;;35.43;10.73;;;;;;;8.29;57.80;102100.69;5004770;28;20525;-84
2021/10/06 04:08:56;;;;;;;26.27;10.77;;;;;;;8.31;57.71;102094.94;5006482;28;20517;-84
2021/10/06 04:11:22;;;;;;;27.30;9.80;;;;;;;8.33;57.30;102090.75;5010308;28;20077;-83
2021/10/06 04:13:49;;;;;;;29.93;8.23;;;;;;;8.28;56.63;102091.00;5038590;28;20108;-82
2021/10/06 04:16:16;;;;;;;29.20;9.13;;;;;;;8.27;56.84;102113.78;5008486;28;20129;-84
2021/10/06 04:18:43;;;;;;;17.13;7.73;;;;;;;8.27;56.65;102116.50;5009955;28;20124;-83
2021/10/06 04:21:09;;;;;;;14.37;5.77;;;;;;;8.26;56.35;102112.25;5003881;28;20105;-85
2021/10/06 04:23:36;;;;;;;15.17;5.27;;;;;;;8.23;55.76;102123.78;5001439;28;20104;-83
2021/10/06 04:26:03;;;;;;;9.00;4.53;;;;;;;8.26;55.42;102128.47;5010411;28;20460;-85
2021/10/06 04:28:30;;;;;;;9.93;4.27;;;;;;;8.16;54.96;102124.38;5011513;28;20142;-83
2021/10/06 04:30:57;;;;;;;13.60;4.07;;;;;;;8.15;54.88;102130.16;5002191;28;20140;-84
2021/10/06 04:33:24;;;;;;;9.13;3.73;;;;;;;8.17;55.01;102130.59;5021982;28;20149;-84
2021/10/06 04:35:50;;;;;;;7.07;3.57;;;;;;;8.19;54.68;102122.91;5008885;28;20141;-84
2021/10/06 04:38:17;;;;;;;9.33;3.80;;;;;;;8.27;54.25;102126.56;5009638;28;20446;-83
2021/10/06 04:40:44;;;;;;;8.27;4.30;;;;;;;8.37;53.62;102113.28;5010931;28;20541;-84
2021/10/06 04:43:12;;;;;;;8.40;4.80;;;;;;;8.42;53.37;102123.84;5009462;28;20096;-83
2021/10/06 04:45:39;;;;;;;9.67;4.60;;;;;;;8.52;53.34;102125.97;5018799;28;20133;-84
2021/10/06 04:48:06;;;;;;;11.83;3.97;;;;;;;8.60;52.64;102126.13;5004654;28;20050;-83
2021/10/06 04:50:33;;;;;;;8.30;4.10;;;;;;;8.67;52.79;102123.56;5014216;28;20085;-83
2021/10/06 04:53:00;;;;;;;13.53;4.00;;;;;;;8.80;52.68;102114.16;5007250;28;20148;-83
2021/10/06 04:55:27;;;;;;;8.67;3.90;;;;;;;8.87;52.01;102120.50;5012652;28;20149;-84
2021/10/06 04:57:54;;;;;;;15.07;3.97;;;;;;;8.98;51.43;102115.25;5004285;28;20141;-83
2021/10/06 05:00:21;;;;;;;5.53;3.97;;;;;;;9.08;51.49;102128.25;5011404;28;20125;-83
2021/10/06 05:02:48;;;;;;;11.13;3.80;;;;;;;9.19;50.67;102121.09;5000994;28;20133;-79
2021/10/06 05:05:15;;;;;;;8.73;3.57;;;;;;;9.34;50.83;102121.34;5007088;28;20450;-78
2021/10/06 05:07:42;;;;;;;12.27;3.47;;;;;;;9.42;50.83;102136.59;5006231;28;20089;-79
2021/10/06 05:10:09;;;;;;;7.90;3.90;;;;;;;9.49;49.48;102123.16;5009142;28;20124;-78
2021/10/06 05:12:36;;;;;;;8.10;3.70;;;;;;;9.56;49.67;102134.13;5009321;28;20073;-79
2021/10/06 05:15:03;;;;;;;7.80;2.93;;;;;;;9.51;48.83;102137.13;5006225;28;20046;-79
2021/10/06 05:17:30;;;;;;;10.23;3.37;;;;;;;9.44;48.19;102126.97;5008521;28;20100;-79
2021/10/06 05:19:57;;;;;;;9.97;3.60;;;;;;;9.49;48.96;102123.94;5010963;28;20146;-84
2021/10/06 05:22:24;;;;;;;8.30;3.90;;;;;;;9.56;47.66;102129.47;5009872;28;20112;-80
2021/10/06 05:24:50;;;;;;;9.27;4.07;;;;;;;9.66;48.32;102128.09;5011828;28;20140;-82
2021/10/06 05:27:17;;;;;;;12.63;3.87;;;;;;;9.88;47.93;102135.44;5012782;28;20145;-80
2021/10/06 05:29:44;;;;;;;12.93;3.90;;;;;;;10.08;47.26;102132.63;5011636;28;20073;-80
2021/10/06 05:32:10;;;;;;;13.90;3.10;;;;;;;10.33;46.66;102139.22;5040701;28;20084;-78
2021/10/06 05:34:37;;;;;;;8.80;2.70;;;;;;;10.48;46.27;102134.75;5021345;28;20137;-80
2021/10/06 05:37:04;;;;;;;5.60;3.30;;;;;;;10.55;45.27;102135.63;5009404;28;20689;-79
2021/10/06 05:39:31;;;;;;;10.77;3.07;;;;;;;10.77;45.24;102136.66;5003787;28;20065;-79
2021/10/06 05:41:58;;;;;;;5.67;3.20;;;;;;;10.70;44.66;102138.50;5008620;28;20072;-79
2021/10/06 05:44:29;;;;;;;11.03;3.67;;;;;;;10.77;43.98;102135.88;5003347;28;20096;-78
2021/10/06 05:46:55;;;;;;;9.57;3.17;;;;;;;10.82;43.53;102151.88;5006993;28;20053;-79
2021/10/06 05:49:22;;;;;;;8.40;3.27;;;;;;;11.02;43.90;102147.81;5008669;28;20096;-80
2021/10/06 05:51:49;;;;;;;16.63;3.53;;;;;;;11.33;43.82;102157.47;5012636;28;20187;-79
2021/10/06 05:54:16;;;;;;;8.77;3.17;;;;;;;11.49;42.57;102143.63;5011547;28;20096;-80
2021/10/06 05:56:42;;;;;;;7.57;3.37;;;;;;;11.78;40.89;102153.63;5012101;28;20050;-80
2021/10/06 05:59:09;;;;;;;10.80;3.37;;;;;;;12.05;41.69;102159.66;5010716;28;20465;-78
2021/10/06 06:01:37;;;;;;;10.37;4.67;;;;;;;12.34;40.65;102155.16;5008213;28;20116;-77
2021/10/06 06:04:04;;;;;;;16.47;3.87;;;;;;;12.62;40.42;102155.31;5011807;28;20058;-79
2021/10/06 06:06:30;;;;;;;15.63;3.37;;;;;;;12.73;38.83;102143.69;5006212;28;20115;-78
2021/10/06 06:08:57;;;;;;;10.93;4.07;;;;;;;12.97;39.88;102162.09;5010400;28;20073;-79
2021/10/06 06:11:27;;;;;;;15.33;4.23;;;;;;;13.01;39.55;102143.78;5011574;28;20470;-79
2021/10/06 06:13:54;;;;;;;10.33;3.40;;;;;;;13.01;38.75;102151.94;5006088;28;20140;-79
2021/10/06 06:16:21;;;;;;;14.70;3.57;;;;;;;13.01;39.12;102153.91;5009736;28;20084;-78
2021/10/06 06:18:47;;;;;;;18.17;4.03;;;;;;;13.26;38.07;102147.38;5010760;28;20147;-78
2021/10/06 06:21:14;;;;;;;18.10;4.53;;;;;;;13.47;38.45;102137.66;5011422;28;20129;-78
2021/10/06 06:23:41;;;;;;;15.23;4.20;;;;;;;13.60;38.31;102138.84;5009607;28;20145;-83
2021/10/06 06:26:09;;;;;;;14.73;3.70;;;;;;;13.41;37.81;102139.22;5013764;28;20112;-78
2021/10/06 06:28:38;;;;;;;11.27;3.37;;;;;;;13.46;37.61;102141.56;5013375;28;20513;-78
2021/10/06 06:31:06;;;;;;;9.20;4.03;;;;;;;13.37;37.28;102146.63;5005914;28;20099;-79
2021/10/06 06:33:34;;;;;;;6.57;3.30;;;;;;;13.65;36.52;102143.91;5007848;28;20485;-79
2021/10/06 06:36:01;;;;;;;15.53;3.87;;;;;;;13.49;36.23;102163.38;5011567;28;20108;-79
2021/10/06 06:38:28;;;;;;;5.87;3.00;;;;;;;13.74;37.05;102151.69;5013211;28;20081;-77
2021/10/06 06:40:55;;;;;;;11.47;2.70;;;;;;;14.12;35.40;102139.97;5009728;28;20050;-78
2021/10/06 06:43:22;;;;;;;10.53;3.03;;;;;;;14.29;35.52;102149.28;5011974;28;20058;-78
2021/10/06 06:45:49;;;;;;;15.87;3.43;;;;;;;14.46;35.07;102153.94;5009568;28;20054;-79
2021/10/06 06:48:16;;;;;;;15.90;4.33;;;;;;;14.01;34.79;102139.19;5003649;28;20054;-75
2021/10/06 06:50:45;;;;;;;11.87;3.33;;;;;;;14.05;35.27;102139.19;5008722;28;20048;-78
2021/10/06 06:53:12;;;;;;;12.13;3.23;;;;;;;14.15;35.00;102141.91;5023846;28;20049;-76
2021/10/06 06:55:39;;;;;;;9.77;3.67;;;;;;;14.48;35.21;102128.97;5012869;28;20073;-81
2021/10/06 06:58:06;;;;;;;9.43;3.10;;;;;;;14.65;35.27;102139.81;5014877;28;20046;-80
2021/10/06 07:00:33;;;;;;;16.33;3.50;;;;;;;14.36;34.74;102140.31;5007730;28;20053;-79
2021/10/06 07:02:59;;;;;;;18.53;3.63;;;;;;;14.48;34.87;102139.88;5009722;28;20058;-79
2021/10/06 07:05:29;;;;;;;22.30;3.17;;;;;;;14.56;33.42;102153.16;5009363;28;20426;-79
2021/10/06 07:07:56;;;;;;;12.40;3.03;;;;;;;14.26;33.77;102155.53;5010849;28;20054;-80
2021/10/06 07:10:23;;;;;;;10.10;2.80;;;;;;;14.47;32.97;102150.03;5026185;28;20046;-79
2021/10/06 07:12:50;;;;;;;9.67;3.70;;;;;;;14.65;33.76;102145.28;5011260;28;20054;-79
2021/10/06 07:15:17;;;;;;;17.37;2.77;;;;;;;14.73;32.43;102134.31;5011396;28;20054;-80
2021/10/06 07:17:46;;;;;;;15.70;3.23;;;;;;;14.88;33.01;102128.38;5006868;28;20379;-81
2021/10/06 07:20:13;;;;;;;9.80;2.37;;;;;;;14.97;32.09;102130.69;5005283;28;20046;-79
2021/10/06 07:22:40;;;;;;;26.93;3.33;;;;;;;15.07;31.36;102105.25;5011000;28;20505;-79
2021/10/06 07:25:07;;;;;;;14.80;3.10;;;;;;;15.08;31.11;102112.28;5022758;28;20060;-80
2021/10/06 07:27:33;;;;;;;12.20;2.70;;;;;;;14.89;30.91;102115.50;5008136;28;20057;-80
2021/10/06 07:30:02;;;;;;;12.80;3.27;;;;;;;14.65;31.71;102107.00;5007567;28;20073;-79
2021/10/06 07:32:28;;;;;;;11.00;2.37;;;;;;;14.90;31.01;102127.97;5011388;28;20459;-80
2021/10/06 07:34:55;;;;;;;16.47;2.30;;;;;;;14.92;31.34;102123.69;5010813;28;20054;-79
2021/10/06 07:37:22;;;;;;;6.60;2.30;;;;;;;14.41;30.20;102107.16;5004912;28;20050;-79
2021/10/06 07:39:49;;;;;;;15.50;3.10;;;;;;;14.37;30.72;102145.38;5007849;28;20498;-79
2021/10/06 07:42:16;;;;;;;15.40;3.03;;;;;;;14.23;30.53;102120.81;5010160;28;20144;-79
2021/10/06 07:44:44;;;;;;;10.40;2.23;;;;;;;14.17;30.70;102117.69;5011316;28;20077;-81
2021/10/06 07:47:11;;;;;;;16.03;2.40;;;;;;;14.15;30.06;102128.25;5027342;28;20137;-78
2021/10/06 07:49:38;;;;;;;7.00;2.07;;;;;;;14.19;30.03;102134.47;5010521;28;20058;-80
2021/10/06 07:52:07;;;;;;;4.40;1.73;;;;;;;14.12;30.05;102125.53;5011606;28;20140;-79
2021/10/06 07:54:33;;;;;;;13.27;2.40;;;;;;;14.32;30.27;102123.91;5009618;28;20140;-79
2021/10/06 07:57:00;;;;;;;8.30;2.53;;;;;;;14.37;30.31;102118.06;5007133;28;20073;-80
2021/10/06 07:59:27;;;;;;;11.73;2.70;;;;;;;14.23;30.07;102129.00;5012529;28;20477;-80
2021/10/06 08:01:54;;;;;;;7.03;3.13;;;;;;;14.16;30.44;102120.84;5040484;28;20048;-79
2021/10/06 08:04:21;;;;;;;8.60;3.13;;;;;;;14.50;30.21;102111.00;5003729;28;20482;-80
2021/10/06 08:06:48;;;;;;;8.63;2.47;;;;;;;14.78;30.23;102120.25;5011252;28;20478;-80
2021/10/06 08:09:17;;;;;;;12.03;3.00;;;;;;;14.86;29.49;102110.84;5005021;28;20406;-80
2021/10/06 08:11:44;;;;;;;22.97;4.47;;;;;;;15.00;29.64;102095.13;5011055;28;20082;-79
2021/10/06 08:14:10;;;;;;;23.23;3.13;;;;;;;14.90;29.57;102106.88;5013893;28;20092;-79
2021/10/06 08:16:38;;;;;;;10.47;2.73;;;;;;;14.92;29.76;102109.22;5026347;28;20161;-81
2021/10/06 08:19:05;;;;;;;14.60;2.80;;;;;;;14.74;30.10;102109.31;5010684;28;20140;-78
2021/10/06 08:21:31;;;;;;;15.17;3.10;;;;;;;14.78;29.24;102098.38;5010893;28;20528;-77
2021/10/06 08:23:58;;;;;;;7.20;2.33;;;;;;;14.51;29.41;102101.63;5008905;28;20499;-79
2021/10/06 08:26:25;;;;;;;27.53;5.43;;;;;;;14.77;28.61;102105.03;5010026;28;20188;-78
2021/10/06 08:28:52;;;;;;;22.33;3.30;;;;;;;15.10;28.99;102107.19;5026047;28;20984;-80
2021/10/06 08:31:20;;;;;;;13.80;2.20;;;;;;;15.25;28.21;102094.94;5011479;28;20069;-81
2021/10/06 08:33:46;;;;;;;15.47;2.83;;;;;;;15.08;28.49;102115.00;5011396;28;20379;-79
2021/10/06 08:36:13;;;;;;;13.77;2.27;;;;;;;15.12;28.64;102095.81;5002499;28;20062;-80
2021/10/06 08:38:40;;;;;;;13.23;4.50;;;;;;;15.26;28.55;102098.47;5007980;28;20125;-79
2021/10/06 08:41:07;;;;;;;15.07;3.03;;;;;;;15.42;28.12;102097.94;5009011;28;20188;-79
2021/10/06 08:43:37;;;;;;;13.63;2.00;;;;;;;15.34;28.07;102087.06;5014313;28;20088;-81
2021/10/06 08:46:04;;;;;;;8.37;3.00;;;;;;;15.14;27.87;102087.97;5013280;28;20129;-80
2021/10/06 08:48:31;;;;;;;15.47;2.60;;;;;;;15.15;27.34;102112.22;5015590;28;20058;-78
2021/10/06 08:50:57;;;;;;;17.53;2.37;;;;;;;15.18;27.41;102095.00;5012192;28;20107;-80
2021/10/06 08:53:44;;;;;;;23.73;2.83;;;;;;;15.38;27.42;102097.19;5012816;28;20375;-80
2021/10/06 08:56:11;;;;;;;18.27;4.00;;;;;;;15.62;26.90;102088.81;5013219;28;20085;-78
2021/10/06 08:58:38;;;;;;;14.30;2.40;;;;;;;15.74;26.64;102098.50;5013470;28;20053;-80
2021/10/06 09:01:05;;;;;;;7.28;2.60;;;;;;;16.21;26.97;102093.31;5012440;28;20141;-79
2021/10/06 09:03:34;;;;;;;9.65;1.88;;;;;;;16.36;26.36;102089.22;5013823;28;20042;-81
2021/10/06 09:06:07;;;;;;;15.23;2.75;;;;;;;16.12;25.76;102073.81;5021984;28;20073;-80
2021/10/06 09:08:35;;;;;;;14.65;2.50;;;;;;;16.10;26.44;102081.69;5011861;28;20449;-80
2021/10/06 09:11:05;;;;;;;13.20;2.50;;;;;;;16.24;26.43;102076.84;5013998;28;20092;-80
2021/10/06 09:13:35;;;;;;;12.45;2.97;;;;;;;16.34;26.50;102069.66;5021606;28;20108;-80
2021/10/06 09:16:02;;;;;;;5.07;2.58;;;;;;;16.51;26.20;102060.44;5010221;28;20058;-79
2021/10/06 09:18:31;;;;;;;18.25;2.53;;;;;;;16.67;26.68;102071.59;5006290;28;20054;-80
2021/10/06 09:21:01;;;;;;;12.60;2.33;;;;;;;16.79;26.12;102066.75;5028001;28;20054;-79
2021/10/06 09:23:29;;;;;;;17.05;2.90;;;;;;;16.44;26.02;102057.00;5008894;28;20053;-79
2021/10/06 09:26:00;;;;;;;24.80;4.00;;;;;;;16.29;26.66;102045.47;5006021;28;20053;-82
2021/10/06 09:28:32;;;;;;;14.57;2.63;;;;;;;16.12;26.73;102065.59;5012184;28;20192;-83
2021/10/06 09:31:02;;;;;;;18.47;3.17;;;;;;;16.05;26.77;102041.84;5026694;28;20041;-82
2021/10/06 09:34:02;;;;;;;20.08;3.47;;;;;;;16.17;25.85;102037.78;4995737;28;20376;-80
2021/10/06 09:36:31;;;;;;;10.88;2.80;;;;;;;15.96;25.52;102088.88;5027578;28;20735;-80
2021/10/06 09:39:05;;;;;;;18.35;3.08;;;;;;;15.74;25.68;102038.25;5012425;28;20057;-82
2021/10/06 09:41:41;;;;;;;12.18;2.78;;;;;;;15.69;25.76;102046.91;5012536;28;20116;-80
2021/10/06 09:44:19;;;;;;;11.60;3.17;;;;;;;15.74;25.78;102051.94;5013411;28;20057;-78
2021/10/06 09:47:00;;;;;;;17.30;3.90;;;;;;;15.92;26.07;102047.03;5022729;28;20477;-80
2021/10/06 09:49:31;;;;;;;20.67;2.97;;;;;;;15.72;25.61;102050.78;5013707;28;20121;-81
2021/10/06 09:52:18;;;;;;;12.63;3.50;;;;;;;15.75;25.58;102066.41;5009487;28;20097;-81
2021/10/06 09:54:50;;;;;;;19.50;3.72;;;;;;;15.78;25.40;102033.53;5012843;28;20053;-80
2021/10/06 09:57:28;;;;;;;8.50;3.05;;;;;;;15.62;25.30;102031.31;5004301;28;20054;-80
2021/10/06 10:00:17;;;;;;;18.92;3.00;;;;;;;15.63;25.65;102043.03;5009508;28;20116;-81
2021/10/06 10:02:45;;;;;;;11.88;3.25;;;;;;;16.01;25.51;102041.09;5013089;28;20399;-79
2021/10/06 10:05:13;;;;;;;10.63;2.38;;;;;;;16.36;25.39;102034.38;5011752;28;20104;-80
2021/10/06 10:07:40;;;;;;;11.50;2.33;;;;;;;16.33;25.09;102027.75;5012043;28;20104;-81
2021/10/06 10:10:09;;;;;;;12.75;2.60;;;;;;;16.39;24.65;102039.06;5007713;28;20100;-79
2021/10/06 10:12:40;;;;;;;10.18;1.60;;;;;;;16.41;25.06;102035.91;5011803;28;20081;-81
2021/10/06 10:15:08;;;;;;;8.02;2.15;;;;;;;16.64;24.33;102031.31;5012276;28;20058;-79
2021/10/06 10:17:36;;;;;;;18.83;2.67;;;;;;;16.62;24.33;101984.28;5012927;28;20472;-78
2021/10/06 10:20:10;;;;;;;8.20;1.90;;;;;;;16.66;24.37;102007.00;5014192;28;20501;-80
2021/10/06 10:22:41;;;;;;;11.95;2.60;;;;;;;16.76;24.43;102029.19;5009959;28;20513;-80
2021/10/06 10:25:17;;;;;;;16.75;2.85;;;;;;;16.82;24.01;102027.50;5012277;28;20081;-80
2021/10/06 10:28:02;;;;;;;18.38;2.30;;;;;;;16.65;24.02;102007.41;5001131;28;20078;-78
2021/10/06 10:30:30;;;;;;;9.95;2.67;;;;;;;16.74;24.21;102031.56;5015325;28;20062;-79
2021/10/06 10:33:02;;;;;;;5.28;1.95;;;;;;;16.52;24.65;102015.41;5018948;28;20053;-81
2021/10/06 10:35:41;;;;;;;9.07;2.33;;;;;;;16.17;24.45;102033.06;5000436;28;20141;-80
2021/10/06 10:38:13;;;;;;;20.80;3.83;;;;;;;16.07;25.00;102016.75;5023404;28;20107;-79
2021/10/06 10:40:45;;;;;;;8.85;2.67;;;;;;;15.98;25.04;102025.47;5011096;28;20049;-83
2021/10/06 10:43:14;;;;;;;15.60;2.05;;;;;;;16.33;25.05;102008.56;5009905;28;20132;-80
2021/10/06 10:45:59;;;;;;;14.57;2.60;;;;;;;16.52;24.78;102037.31;4999843;28;20477;-80
2021/10/06 10:48:31;;;;;;;14.75;2.30;;;;;;;16.34;24.70;101987.44;5008028;28;20054;-79
2021/10/06 10:50:58;;;;;;;13.80;1.92;;;;;;;16.29;24.92;102012.56;5011454;28;20463;-79
2021/10/06 10:53:52;;;;;;;11.00;2.25;;;;;;;16.44;24.96;102008.44;5010614;28;20045;-80
2021/10/06 10:56:40;;;;;;;13.25;2.10;;;;;;;16.62;24.58;102008.97;5010151;28;20054;-79
2021/10/06 10:59:11;;;;;;;9.20;1.65;;;;;;;16.82;24.04;102005.56;5008802;28;20089;-80
2021/10/06 11:01:49;;;;;;;20.27;2.42;;;;;;;16.99;23.97;102004.53;5011477;28;20085;-80
2021/10/06 11:04:17;;;;;;;14.48;2.72;;;;;;;16.96;23.91;102010.84;5025305;28;20050;-80
2021/10/06 11:06:46;;;;;;;11.95;1.88;;;;;;;16.99;24.16;102015.50;5002756;28;20145;-80
2021/10/06 11:09:31;;;;;;;16.52;2.58;;;;;;;17.10;24.16;101999.63;5002467;28;20487;-80
2021/10/06 11:12:10;;;;;;;20.40;2.58;;;;;;;17.28;23.42;101986.38;5026017;28;20069;-80
2021/10/06 11:14:42;;;;;;;14.38;2.25;;;;;;;17.34;23.96;101987.47;5043151;28;20061;-79
2021/10/06 11:17:16;;;;;;;12.43;2.33;;;;;;;17.49;23.53;101981.69;5008502;28;20161;-81
2021/10/06 11:19:55;;;;;;;16.33;2.53;;;;;;;17.72;22.80;101984.44;5011519;28;20116;-79
2021/10/06 11:22:21;;;;;;;9.52;2.75;;;;;;;17.78;22.86;101993.72;5011554;28;20084;-80
2021/10/06 11:24:48;;;;;;;11.70;1.83;;;;;;;17.84;22.78;101978.31;5009447;28;20077;-80
2021/10/06 11:27:15;;;;;;;11.52;2.80;;;;;;;17.70;22.42;101981.34;5011687;28;20084;-79